sensor_id;sensor_type;location;lat;lon;timestamp;temperature;humidity
43561;DHT22;32305;46.410;17.394;2022-11-20T00:01:14;20.40;46.40
43561;DHT22;32305;46.410;17.394;2022-11-20T00:03:42;20.40;46.40
43561;DHT22;32305;46.410;17.394;2022-11-20T00:06:11;20.40;46.40
43561;DHT22;32305;46.410;17.394;2022-11-20T00:08:39;20.40;46.40
43561;DHT22;32305;46.410;17.394;2022-11-20T00:11:07;20.40;46.40
43561;DHT22;32305;46.410;17.394;2022-11-20T00:13:41;20.40;46.30
43561;DHT22;32305;46.410;17.394;2022-11-20T00:16:10;20.40;46.30
43561;DHT22;32305;46.410;17.394;2022-11-20T00:18:38;20.40;46.40
43561;DHT22;32305;46.410;17.394;2022-11-20T00:21:07;20.40;46.40
43561;DHT22;32305;46.410;17.394;2022-11-20T00:23:34;20.30;46.40
43561;DHT22;32305;46.410;17.394;2022-11-20T00:26:06;20.40;46.50
43561;DHT22;32305;46.410;17.394;2022-11-20T00:28:34;20.30;46.50
43561;DHT22;32305;46.410;17.394;2022-11-20T00:31:06;20.30;46.50
43561;DHT22;32305;46.410;17.394;2022-11-20T00:33:34;20.30;46.50
43561;DHT22;32305;46.410;17.394;2022-11-20T00:36:02;20.30;46.50
43561;DHT22;32305;46.410;17.394;2022-11-20T00:38:31;20.40;46.60
43561;DHT22;32305;46.410;17.394;2022-11-20T00:41:00;20.40;46.60
43561;DHT22;32305;46.410;17.394;2022-11-20T00:43:27;20.30;46.50
43561;DHT22;32305;46.410;17.394;2022-11-20T00:45:59;20.40;46.50
43561;DHT22;32305;46.410;17.394;2022-11-20T00:48:27;20.30;46.40
43561;DHT22;32305;46.410;17.394;2022-11-20T00:50:54;20.40;46.40
43561;DHT22;32305;46.410;17.394;2022-11-20T00:53:22;20.40;46.40
43561;DHT22;32305;46.410;17.394;2022-11-20T00:56:00;20.40;46.40
43561;DHT22;32305;46.410;17.394;2022-11-20T00:58:32;20.40;46.40
43561;DHT22;32305;46.410;17.394;2022-11-20T01:01:02;20.40;46.40
43561;DHT22;32305;46.410;17.394;2022-11-20T01:03:34;20.40;46.40
43561;DHT22;32305;46.410;17.394;2022-11-20T01:06:02;20.40;46.40
43561;DHT22;32305;46.410;17.394;2022-11-20T01:08:34;20.40;46.40
43561;DHT22;32305;46.410;17.394;2022-11-20T01:11:04;20.40;46.40
43561;DHT22;32305;46.410;17.394;2022-11-20T01:13:32;20.40;46.40
43561;DHT22;32305;46.410;17.394;2022-11-20T01:16:13;20.40;46.40
43561;DHT22;32305;46.410;17.394;2022-11-20T01:18:44;20.40;46.40
43561;DHT22;32305;46.410;17.394;2022-11-20T01:21:23;20.40;46.40
43561;DHT22;32305;46.410;17.394;2022-11-20T01:23:51;20.30;46.40
43561;DHT22;32305;46.410;17.394;2022-11-20T01:26:21;20.40;46.40
43561;DHT22;32305;46.410;17.394;2022-11-20T01:28:48;20.30;46.40
43561;DHT22;32305;46.410;17.394;2022-11-20T01:31:18;20.40;46.50
43561;DHT22;32305;46.410;17.394;2022-11-20T01:33:47;20.40;46.50
43561;DHT22;32305;46.410;17.394;2022-11-20T01:36:15;20.30;46.50
43561;DHT22;32305;46.410;17.394;2022-11-20T01:38:43;20.30;46.50
43561;DHT22;32305;46.410;17.394;2022-11-20T01:41:12;20.40;46.50
43561;DHT22;32305;46.410;17.394;2022-11-20T01:44:00;20.40;46.50
43561;DHT22;32305;46.410;17.394;2022-11-20T01:46:27;20.40;46.50
43561;DHT22;32305;46.410;17.394;2022-11-20T01:49:16;20.30;46.50
43561;DHT22;32305;46.410;17.394;2022-11-20T01:51:55;20.40;46.50
43561;DHT22;32305;46.410;17.394;2022-11-20T01:54:36;20.40;46.50
43561;DHT22;32305;46.410;17.394;2022-11-20T01:57:08;20.30;46.50
43561;DHT22;32305;46.410;17.394;2022-11-20T01:59:41;20.40;46.50
43561;DHT22;32305;46.410;17.394;2022-11-20T02:02:10;20.30;46.50
43561;DHT22;32305;46.410;17.394;2022-11-20T02:04:37;20.30;46.50
43561;DHT22;32305;46.410;17.394;2022-11-20T02:07:05;20.30;46.50
43561;DHT22;32305;46.410;17.394;2022-11-20T02:09:32;20.30;46.50
43561;DHT22;32305;46.410;17.394;2022-11-20T02:12:00;20.30;46.50
43561;DHT22;32305;46.410;17.394;2022-11-20T02:14:27;20.30;46.50
43561;DHT22;32305;46.410;17.394;2022-11-20T02:16:55;20.30;46.60
43561;DHT22;32305;46.410;17.394;2022-11-20T02:19:28;20.30;46.60
43561;DHT22;32305;46.410;17.394;2022-11-20T02:22:07;20.30;46.60
43561;DHT22;32305;46.410;17.394;2022-11-20T02:24:34;20.30;46.60
43561;DHT22;32305;46.410;17.394;2022-11-20T02:27:08;20.30;46.60
43561;DHT22;32305;46.410;17.394;2022-11-20T02:29:40;20.30;46.60
43561;DHT22;32305;46.410;17.394;2022-11-20T02:32:19;20.30;46.60
43561;DHT22;32305;46.410;17.394;2022-11-20T02:34:47;20.30;46.60
43561;DHT22;32305;46.410;17.394;2022-11-20T02:37:14;20.30;46.50
43561;DHT22;32305;46.410;17.394;2022-11-20T02:39:44;20.30;46.50
43561;DHT22;32305;46.410;17.394;2022-11-20T02:42:11;20.30;46.50
43561;DHT22;32305;46.410;17.394;2022-11-20T02:44:38;20.30;46.50
43561;DHT22;32305;46.410;17.394;2022-11-20T02:47:05;20.20;46.50
43561;DHT22;32305;46.410;17.394;2022-11-20T02:49:32;20.30;46.60
43561;DHT22;32305;46.410;17.394;2022-11-20T02:51:59;20.20;46.50
43561;DHT22;32305;46.410;17.394;2022-11-20T02:54:27;20.20;46.60
43561;DHT22;32305;46.410;17.394;2022-11-20T02:56:54;20.20;46.60
43561;DHT22;32305;46.410;17.394;2022-11-20T02:59:21;20.20;46.60
43561;DHT22;32305;46.410;17.394;2022-11-20T03:01:49;20.20;46.60
43561;DHT22;32305;46.410;17.394;2022-11-20T03:04:16;20.20;46.60
43561;DHT22;32305;46.410;17.394;2022-11-20T03:06:43;20.20;46.60
43561;DHT22;32305;46.410;17.394;2022-11-20T03:09:10;20.20;46.60
43561;DHT22;32305;46.410;17.394;2022-11-20T03:11:37;20.30;46.60
43561;DHT22;32305;46.410;17.394;2022-11-20T03:14:05;20.20;46.50
43561;DHT22;32305;46.410;17.394;2022-11-20T03:16:32;20.30;46.50
43561;DHT22;32305;46.410;17.394;2022-11-20T03:18:59;20.30;46.50
43561;DHT22;32305;46.410;17.394;2022-11-20T03:21:27;20.30;46.50
43561;DHT22;32305;46.410;17.394;2022-11-20T03:23:54;20.30;46.40
43561;DHT22;32305;46.410;17.394;2022-11-20T03:26:23;20.30;46.40
43561;DHT22;32305;46.410;17.394;2022-11-20T03:28:53;20.30;46.50
43561;DHT22;32305;46.410;17.394;2022-11-20T03:31:23;20.30;46.50
43561;DHT22;32305;46.410;17.394;2022-11-20T03:33:51;20.30;46.50
43561;DHT22;32305;46.410;17.394;2022-11-20T03:36:20;20.30;46.40
43561;DHT22;32305;46.410;17.394;2022-11-20T03:38:48;20.30;46.50
43561;DHT22;32305;46.410;17.394;2022-11-20T03:41:20;20.30;46.50
43561;DHT22;32305;46.410;17.394;2022-11-20T03:43:52;20.30;46.50
43561;DHT22;32305;46.410;17.394;2022-11-20T03:46:20;20.30;46.50
43561;DHT22;32305;46.410;17.394;2022-11-20T03:48:48;20.30;46.50
43561;DHT22;32305;46.410;17.394;2022-11-20T03:51:21;20.30;47.10
43561;DHT22;32305;46.410;17.394;2022-11-20T03:53:50;20.30;46.50
43561;DHT22;32305;46.410;17.394;2022-11-20T03:56:19;20.30;46.60
43561;DHT22;32305;46.410;17.394;2022-11-20T03:58:47;20.30;46.60
43561;DHT22;32305;46.410;17.394;2022-11-20T04:01:21;20.20;46.50
43561;DHT22;32305;46.410;17.394;2022-11-20T04:03:48;20.20;46.50
43561;DHT22;32305;46.410;17.394;2022-11-20T04:06:19;20.20;46.50
43561;DHT22;32305;46.410;17.394;2022-11-20T04:08:47;20.30;46.50
43561;DHT22;32305;46.410;17.394;2022-11-20T04:11:22;20.20;46.50
43561;DHT22;32305;46.410;17.394;2022-11-20T04:13:55;20.20;46.50
43561;DHT22;32305;46.410;17.394;2022-11-20T04:16:24;20.20;46.50
43561;DHT22;32305;46.410;17.394;2022-11-20T04:18:59;20.20;46.50
43561;DHT22;32305;46.410;17.394;2022-11-20T04:21:27;20.20;46.50
43561;DHT22;32305;46.410;17.394;2022-11-20T04:23:55;20.20;46.50
43561;DHT22;32305;46.410;17.394;2022-11-20T04:26:24;20.20;46.50
43561;DHT22;32305;46.410;17.394;2022-11-20T04:28:52;20.20;46.50
43561;DHT22;32305;46.410;17.394;2022-11-20T04:31:22;20.20;46.50
43561;DHT22;32305;46.410;17.394;2022-11-20T04:33:50;20.20;46.50
43561;DHT22;32305;46.410;17.394;2022-11-20T04:36:19;20.20;46.50
43561;DHT22;32305;46.410;17.394;2022-11-20T04:38:49;20.20;46.50
43561;DHT22;32305;46.410;17.394;2022-11-20T04:41:27;20.20;46.60
43561;DHT22;32305;46.410;17.394;2022-11-20T04:43:57;20.20;47.10
43561;DHT22;32305;46.410;17.394;2022-11-20T04:46:27;20.20;46.60
43561;DHT22;32305;46.410;17.394;2022-11-20T04:48:55;20.20;46.60
43561;DHT22;32305;46.410;17.394;2022-11-20T04:51:22;20.20;46.60
43561;DHT22;32305;46.410;17.394;2022-11-20T04:53:49;20.20;46.60
43561;DHT22;32305;46.410;17.394;2022-11-20T04:56:17;20.10;46.50
43561;DHT22;32305;46.410;17.394;2022-11-20T04:58:44;20.20;46.50
43561;DHT22;32305;46.410;17.394;2022-11-20T05:01:14;20.20;46.50
43561;DHT22;32305;46.410;17.394;2022-11-20T05:03:42;20.20;46.50
43561;DHT22;32305;46.410;17.394;2022-11-20T05:06:12;20.20;46.50
43561;DHT22;32305;46.410;17.394;2022-11-20T05:08:39;20.10;46.50
43561;DHT22;32305;46.410;17.394;2022-11-20T05:11:09;20.10;46.60
43561;DHT22;32305;46.410;17.394;2022-11-20T05:13:37;20.10;46.60
43561;DHT22;32305;46.410;17.394;2022-11-20T05:16:08;20.10;46.60
43561;DHT22;32305;46.410;17.394;2022-11-20T05:18:36;20.10;46.60
43561;DHT22;32305;46.410;17.394;2022-11-20T05:21:04;20.10;46.60
43561;DHT22;32305;46.410;17.394;2022-11-20T05:23:32;20.10;46.60
43561;DHT22;32305;46.410;17.394;2022-11-20T05:26:00;20.10;46.60
43561;DHT22;32305;46.410;17.394;2022-11-20T05:28:28;20.10;46.60
43561;DHT22;32305;46.410;17.394;2022-11-20T05:31:03;20.10;46.60
43561;DHT22;32305;46.410;17.394;2022-11-20T05:33:30;20.10;46.50
43561;DHT22;32305;46.410;17.394;2022-11-20T05:36:00;20.10;46.40
43561;DHT22;32305;46.410;17.394;2022-11-20T05:38:27;20.20;46.20
43561;DHT22;32305;46.410;17.394;2022-11-20T05:40:54;20.20;46.10
43561;DHT22;32305;46.410;17.394;2022-11-20T05:43:22;20.20;45.90
43561;DHT22;32305;46.410;17.394;2022-11-20T05:45:55;20.20;45.70
43561;DHT22;32305;46.410;17.394;2022-11-20T05:48:22;20.20;45.60
43561;DHT22;32305;46.410;17.394;2022-11-20T05:50:49;20.20;45.40
43561;DHT22;32305;46.410;17.394;2022-11-20T05:53:16;20.20;45.40
43561;DHT22;32305;46.410;17.394;2022-11-20T05:55:43;20.20;45.40
43561;DHT22;32305;46.410;17.394;2022-11-20T05:58:10;20.20;45.50
43561;DHT22;32305;46.410;17.394;2022-11-20T06:00:37;20.10;45.40
43561;DHT22;32305;46.410;17.394;2022-11-20T06:03:04;20.10;45.40
43561;DHT22;32305;46.410;17.394;2022-11-20T06:05:33;20.10;45.40
43561;DHT22;32305;46.410;17.394;2022-11-20T06:08:00;20.10;45.40
43561;DHT22;32305;46.410;17.394;2022-11-20T06:10:28;20.10;45.30
43561;DHT22;32305;46.410;17.394;2022-11-20T06:12:57;20.10;45.30
43561;DHT22;32305;46.410;17.394;2022-11-20T06:15:24;20.10;45.20
43561;DHT22;32305;46.410;17.394;2022-11-20T06:17:53;20.10;45.20
43561;DHT22;32305;46.410;17.394;2022-11-20T06:20:21;20.10;45.20
43561;DHT22;32305;46.410;17.394;2022-11-20T06:22:48;20.10;45.70
43561;DHT22;32305;46.410;17.394;2022-11-20T06:25:15;20.00;45.00
43561;DHT22;32305;46.410;17.394;2022-11-20T06:27:42;20.00;45.00
43561;DHT22;32305;46.410;17.394;2022-11-20T06:30:10;20.00;45.00
43561;DHT22;32305;46.410;17.394;2022-11-20T06:32:37;20.10;44.90
43561;DHT22;32305;46.410;17.394;2022-11-20T06:35:04;20.00;44.90
43561;DHT22;32305;46.410;17.394;2022-11-20T06:37:32;20.00;44.80
43561;DHT22;32305;46.410;17.394;2022-11-20T06:39:59;20.10;44.80
43561;DHT22;32305;46.410;17.394;2022-11-20T06:42:26;20.10;44.80
43561;DHT22;32305;46.410;17.394;2022-11-20T06:44:53;20.10;44.80
43561;DHT22;32305;46.410;17.394;2022-11-20T06:47:20;20.10;44.70
43561;DHT22;32305;46.410;17.394;2022-11-20T06:49:47;20.10;44.70
43561;DHT22;32305;46.410;17.394;2022-11-20T06:52:14;20.10;44.60
43561;DHT22;32305;46.410;17.394;2022-11-20T06:54:41;20.10;44.60
43561;DHT22;32305;46.410;17.394;2022-11-20T06:57:08;20.10;44.60
43561;DHT22;32305;46.410;17.394;2022-11-20T06:59:35;20.10;44.50
43561;DHT22;32305;46.410;17.394;2022-11-20T07:02:02;20.10;44.50
43561;DHT22;32305;46.410;17.394;2022-11-20T07:04:29;20.10;44.40
43561;DHT22;32305;46.410;17.394;2022-11-20T07:06:56;20.10;44.40
43561;DHT22;32305;46.410;17.394;2022-11-20T07:09:23;20.10;44.40
43561;DHT22;32305;46.410;17.394;2022-11-20T07:11:51;20.10;44.40
43561;DHT22;32305;46.410;17.394;2022-11-20T07:14:18;20.10;44.30
43561;DHT22;32305;46.410;17.394;2022-11-20T07:16:45;20.20;44.30
43561;DHT22;32305;46.410;17.394;2022-11-20T07:19:12;20.20;44.30
43561;DHT22;32305;46.410;17.394;2022-11-20T07:21:39;20.20;44.30
43561;DHT22;32305;46.410;17.394;2022-11-20T07:24:06;20.20;44.20
43561;DHT22;32305;46.410;17.394;2022-11-20T07:26:33;20.20;44.20
43561;DHT22;32305;46.410;17.394;2022-11-20T07:29:00;20.20;44.10
43561;DHT22;32305;46.410;17.394;2022-11-20T07:31:27;20.30;44.10
43561;DHT22;32305;46.410;17.394;2022-11-20T07:33:54;20.30;44.00
43561;DHT22;32305;46.410;17.394;2022-11-20T07:36:21;20.30;44.00
43561;DHT22;32305;46.410;17.394;2022-11-20T07:38:48;20.30;43.90
43561;DHT22;32305;46.410;17.394;2022-11-20T07:41:15;20.30;43.90
43561;DHT22;32305;46.410;17.394;2022-11-20T07:43:42;20.30;43.80
43561;DHT22;32305;46.410;17.394;2022-11-20T07:46:09;20.40;43.80
43561;DHT22;32305;46.410;17.394;2022-11-20T07:48:37;20.30;43.70
43561;DHT22;32305;46.410;17.394;2022-11-20T07:51:04;20.40;43.70
43561;DHT22;32305;46.410;17.394;2022-11-20T07:53:31;20.40;43.60
43561;DHT22;32305;46.410;17.394;2022-11-20T07:56:02;20.40;43.50
43561;DHT22;32305;46.410;17.394;2022-11-20T07:58:29;20.50;43.40
43561;DHT22;32305;46.410;17.394;2022-11-20T08:00:57;20.50;43.40
43561;DHT22;32305;46.410;17.394;2022-11-20T08:03:24;20.50;43.30
43561;DHT22;32305;46.410;17.394;2022-11-20T08:05:51;20.50;43.20
43561;DHT22;32305;46.410;17.394;2022-11-20T08:08:19;20.60;43.10
43561;DHT22;32305;46.410;17.394;2022-11-20T08:10:46;20.60;43.10
43561;DHT22;32305;46.410;17.394;2022-11-20T08:13:13;20.60;43.00
43561;DHT22;32305;46.410;17.394;2022-11-20T08:16:00;20.60;43.00
43561;DHT22;32305;46.410;17.394;2022-11-20T08:18:27;20.60;42.90
43561;DHT22;32305;46.410;17.394;2022-11-20T08:21:01;20.60;42.90
43561;DHT22;32305;46.410;17.394;2022-11-20T08:23:28;20.60;42.80
43561;DHT22;32305;46.410;17.394;2022-11-20T08:25:55;20.70;42.80
43561;DHT22;32305;46.410;17.394;2022-11-20T08:28:22;20.70;42.70
43561;DHT22;32305;46.410;17.394;2022-11-20T08:30:49;20.70;42.70
43561;DHT22;32305;46.410;17.394;2022-11-20T08:33:17;20.70;42.60
43561;DHT22;32305;46.410;17.394;2022-11-20T08:35:45;20.80;42.60
43561;DHT22;32305;46.410;17.394;2022-11-20T08:38:12;20.80;42.60
43561;DHT22;32305;46.410;17.394;2022-11-20T08:40:39;20.80;42.50
43561;DHT22;32305;46.410;17.394;2022-11-20T08:43:06;20.80;42.60
43561;DHT22;32305;46.410;17.394;2022-11-20T08:45:33;20.80;42.50
43561;DHT22;32305;46.410;17.394;2022-11-20T08:48:02;20.80;42.50
43561;DHT22;32305;46.410;17.394;2022-11-20T08:50:30;20.80;43.10
43561;DHT22;32305;46.410;17.394;2022-11-20T08:53:04;20.80;42.50
43561;DHT22;32305;46.410;17.394;2022-11-20T08:55:31;20.70;42.50
43561;DHT22;32305;46.410;17.394;2022-11-20T08:58:02;20.70;42.40
43561;DHT22;32305;46.410;17.394;2022-11-20T09:00:30;20.80;42.50
43561;DHT22;32305;46.410;17.394;2022-11-20T09:02:57;20.70;42.40
43561;DHT22;32305;46.410;17.394;2022-11-20T09:05:25;20.70;42.40
43561;DHT22;32305;46.410;17.394;2022-11-20T09:07:55;20.70;42.40
43561;DHT22;32305;46.410;17.394;2022-11-20T09:10:22;20.80;42.40
43561;DHT22;32305;46.410;17.394;2022-11-20T09:12:51;20.70;42.40
43561;DHT22;32305;46.410;17.394;2022-11-20T09:15:19;20.80;42.30
43561;DHT22;32305;46.410;17.394;2022-11-20T09:17:58;20.80;42.40
43561;DHT22;32305;46.410;17.394;2022-11-20T09:20:26;20.80;42.30
43561;DHT22;32305;46.410;17.394;2022-11-20T09:22:56;20.80;42.30
43561;DHT22;32305;46.410;17.394;2022-11-20T09:25:23;20.80;42.30
43561;DHT22;32305;46.410;17.394;2022-11-20T09:27:57;20.80;42.20
43561;DHT22;32305;46.410;17.394;2022-11-20T09:30:25;20.80;42.20
43561;DHT22;32305;46.410;17.394;2022-11-20T09:32:56;20.80;42.10
43561;DHT22;32305;46.410;17.394;2022-11-20T09:35:23;20.80;42.10
43561;DHT22;32305;46.410;17.394;2022-11-20T09:37:50;20.80;42.00
43561;DHT22;32305;46.410;17.394;2022-11-20T09:40:23;20.90;42.10
43561;DHT22;32305;46.410;17.394;2022-11-20T09:43:19;20.90;42.00
43561;DHT22;32305;46.410;17.394;2022-11-20T09:52:16;21.00;41.90
43561;DHT22;32305;46.410;17.394;2022-11-20T09:54:45;21.00;41.80
43561;DHT22;32305;46.410;17.394;2022-11-20T09:57:17;21.00;41.80
43561;DHT22;32305;46.410;17.394;2022-11-20T09:59:59;21.00;41.70
43561;DHT22;32305;46.410;17.394;2022-11-20T10:02:55;21.10;41.80
43561;DHT22;32305;46.410;17.394;2022-11-20T10:05:31;21.10;41.70
43561;DHT22;32305;46.410;17.394;2022-11-20T10:08:25;21.10;41.70
43561;DHT22;32305;46.410;17.394;2022-11-20T10:11:20;21.10;41.60
43561;DHT22;32305;46.410;17.394;2022-11-20T10:14:11;21.10;41.60
43561;DHT22;32305;46.410;17.394;2022-11-20T10:19:47;21.10;41.50
43561;DHT22;32305;46.410;17.394;2022-11-20T10:22:33;21.10;41.40
43561;DHT22;32305;46.410;17.394;2022-11-20T10:25:15;21.10;41.40
43561;DHT22;32305;46.410;17.394;2022-11-20T10:28:21;21.10;41.40
43561;DHT22;32305;46.410;17.394;2022-11-20T10:30:59;21.10;41.40
43561;DHT22;32305;46.410;17.394;2022-11-20T10:33:30;21.10;41.40
43561;DHT22;32305;46.410;17.394;2022-11-20T10:36:26;21.10;41.30
43561;DHT22;32305;46.410;17.394;2022-11-20T10:39:17;21.20;41.30
43561;DHT22;32305;46.410;17.394;2022-11-20T10:41:49;21.20;41.20
43561;DHT22;32305;46.410;17.394;2022-11-20T10:44:21;21.20;41.20
43561;DHT22;32305;46.410;17.394;2022-11-20T10:47:14;21.20;41.10
43561;DHT22;32305;46.410;17.394;2022-11-20T10:49:43;21.20;41.10
43561;DHT22;32305;46.410;17.394;2022-11-20T10:52:42;21.30;41.00
43561;DHT22;32305;46.410;17.394;2022-11-20T10:55:30;21.20;40.90
43561;DHT22;32305;46.410;17.394;2022-11-20T11:01:11;21.30;40.90
43561;DHT22;32305;46.410;17.394;2022-11-20T11:03:41;21.30;40.90
43561;DHT22;32305;46.410;17.394;2022-11-20T11:06:32;21.40;40.90
43561;DHT22;32305;46.410;17.394;2022-11-20T11:09:08;21.40;40.70
43561;DHT22;32305;46.410;17.394;2022-11-20T11:11:38;21.50;40.70
43561;DHT22;32305;46.410;17.394;2022-11-20T11:14:13;21.50;40.60
43561;DHT22;32305;46.410;17.394;2022-11-20T11:16:53;21.60;40.60
43561;DHT22;32305;46.410;17.394;2022-11-20T11:19:20;21.60;40.50
43561;DHT22;32305;46.410;17.394;2022-11-20T11:21:50;21.60;40.40
43561;DHT22;32305;46.410;17.394;2022-11-20T11:24:28;21.70;40.40
43561;DHT22;32305;46.410;17.394;2022-11-20T11:27:13;21.70;40.40
43561;DHT22;32305;46.410;17.394;2022-11-20T11:29:44;21.70;40.30
43561;DHT22;32305;46.410;17.394;2022-11-20T11:32:20;21.80;40.30
43561;DHT22;32305;46.410;17.394;2022-11-20T11:35:06;21.80;40.20
43561;DHT22;32305;46.410;17.394;2022-11-20T11:37:36;21.80;40.10
43561;DHT22;32305;46.410;17.394;2022-11-20T11:40:03;21.80;40.00
43561;DHT22;32305;46.410;17.394;2022-11-20T11:42:55;21.80;40.00
43561;DHT22;32305;46.410;17.394;2022-11-20T11:45:24;21.80;40.00
43561;DHT22;32305;46.410;17.394;2022-11-20T11:47:52;21.80;40.00
43561;DHT22;32305;46.410;17.394;2022-11-20T11:50:24;21.80;40.60
43561;DHT22;32305;46.410;17.394;2022-11-20T11:52:59;21.80;40.00
43561;DHT22;32305;46.410;17.394;2022-11-20T11:55:40;21.70;40.00
43561;DHT22;32305;46.410;17.394;2022-11-20T11:58:20;21.70;40.10
43561;DHT22;32305;46.410;17.394;2022-11-20T12:04:12;21.60;40.30
43561;DHT22;32305;46.410;17.394;2022-11-20T12:06:42;21.60;40.30
43561;DHT22;32305;46.410;17.394;2022-11-20T12:09:11;21.60;40.40
43561;DHT22;32305;46.410;17.394;2022-11-20T12:11:58;21.60;40.40
43561;DHT22;32305;46.410;17.394;2022-11-20T12:14:38;21.60;40.50
43561;DHT22;32305;46.410;17.394;2022-11-20T12:17:10;21.60;40.50
43561;DHT22;32305;46.410;17.394;2022-11-20T12:19:38;21.50;40.50
43561;DHT22;32305;46.410;17.394;2022-11-20T12:22:20;21.50;40.50
43561;DHT22;32305;46.410;17.394;2022-11-20T12:25:04;21.50;40.50
43561;DHT22;32305;46.410;17.394;2022-11-20T12:28:00;21.50;40.60
43561;DHT22;32305;46.410;17.394;2022-11-20T12:30:32;21.50;40.60
43561;DHT22;32305;46.410;17.394;2022-11-20T12:33:27;21.50;40.60
43561;DHT22;32305;46.410;17.394;2022-11-20T12:36:16;21.50;40.60
43561;DHT22;32305;46.410;17.394;2022-11-20T12:39:12;21.40;40.60
43561;DHT22;32305;46.410;17.394;2022-11-20T12:41:58;21.40;40.60
43561;DHT22;32305;46.410;17.394;2022-11-20T12:51:32;21.40;40.70
43561;DHT22;32305;46.410;17.394;2022-11-20T12:54:35;21.40;40.70
43561;DHT22;32305;46.410;17.394;2022-11-20T12:57:12;21.40;40.70
43561;DHT22;32305;46.410;17.394;2022-11-20T13:00:15;21.40;41.20
43561;DHT22;32305;46.410;17.394;2022-11-20T13:03:14;21.40;40.70
43561;DHT22;32305;46.410;17.394;2022-11-20T13:06:02;21.30;40.70
43561;DHT22;32305;46.410;17.394;2022-11-20T13:08:39;21.30;40.70
43561;DHT22;32305;46.410;17.394;2022-11-20T13:11:21;21.30;40.80
43561;DHT22;32305;46.410;17.394;2022-11-20T13:17:25;21.30;40.80
43561;DHT22;32305;46.410;17.394;2022-11-20T13:19:57;21.30;40.90
43561;DHT22;32305;46.410;17.394;2022-11-20T13:22:42;21.30;41.00
43561;DHT22;32305;46.410;17.394;2022-11-20T13:25:21;21.30;40.90
43561;DHT22;32305;46.410;17.394;2022-11-20T13:27:49;21.30;40.90
43561;DHT22;32305;46.410;17.394;2022-11-20T13:30:19;21.30;41.00
43561;DHT22;32305;46.410;17.394;2022-11-20T13:33:07;21.20;40.90
43561;DHT22;32305;46.410;17.394;2022-11-20T13:35:42;21.20;40.90
43561;DHT22;32305;46.410;17.394;2022-11-20T13:38:12;21.20;40.90
43561;DHT22;32305;46.410;17.394;2022-11-20T13:40:58;21.20;41.00
43561;DHT22;32305;46.410;17.394;2022-11-20T13:43:40;21.20;41.00
43561;DHT22;32305;46.410;17.394;2022-11-20T13:46:09;21.20;41.00
43561;DHT22;32305;46.410;17.394;2022-11-20T13:48:41;21.20;41.00
43561;DHT22;32305;46.410;17.394;2022-11-20T13:51:33;21.20;41.10
43561;DHT22;32305;46.410;17.394;2022-11-20T13:54:34;21.20;41.10
43561;DHT22;32305;46.410;17.394;2022-11-20T13:57:35;21.10;41.10
43561;DHT22;32305;46.410;17.394;2022-11-20T14:00:19;21.10;41.10
43561;DHT22;32305;46.410;17.394;2022-11-20T14:03:01;21.10;41.20
43561;DHT22;32305;46.410;17.394;2022-11-20T14:05:31;21.10;41.20
43561;DHT22;32305;46.410;17.394;2022-11-20T14:08:03;21.10;41.20
43561;DHT22;32305;46.410;17.394;2022-11-20T14:10:32;21.10;41.30
43561;DHT22;32305;46.410;17.394;2022-11-20T14:13:10;21.10;41.30
43561;DHT22;32305;46.410;17.394;2022-11-20T14:15:38;21.00;41.30
43561;DHT22;32305;46.410;17.394;2022-11-20T14:18:13;21.00;41.20
43561;DHT22;32305;46.410;17.394;2022-11-20T14:20:42;21.00;41.30
43561;DHT22;32305;46.410;17.394;2022-11-20T14:23:10;21.00;41.30
43561;DHT22;32305;46.410;17.394;2022-11-20T14:25:42;21.00;41.40
43561;DHT22;32305;46.410;17.394;2022-11-20T14:28:25;21.00;41.40
43561;DHT22;32305;46.410;17.394;2022-11-20T14:30:54;21.00;41.40
43561;DHT22;32305;46.410;17.394;2022-11-20T14:33:23;21.00;41.40
43561;DHT22;32305;46.410;17.394;2022-11-20T14:35:55;21.00;41.50
43561;DHT22;32305;46.410;17.394;2022-11-20T14:38:25;21.00;41.50
43561;DHT22;32305;46.410;17.394;2022-11-20T14:40:53;21.00;41.50
43561;DHT22;32305;46.410;17.394;2022-11-20T14:43:23;21.00;41.50
43561;DHT22;32305;46.410;17.394;2022-11-20T14:46:06;21.00;41.60
43561;DHT22;32305;46.410;17.394;2022-11-20T14:48:49;21.00;41.60
43561;DHT22;32305;46.410;17.394;2022-11-20T14:51:33;21.00;42.20
43561;DHT22;32305;46.410;17.394;2022-11-20T14:54:17;21.00;41.60
43561;DHT22;32305;46.410;17.394;2022-11-20T14:56:59;21.00;41.60
43561;DHT22;32305;46.410;17.394;2022-11-20T14:59:29;20.90;41.60
43561;DHT22;32305;46.410;17.394;2022-11-20T15:02:06;20.90;41.60
43561;DHT22;32305;46.410;17.394;2022-11-20T15:04:56;20.90;41.60
43561;DHT22;32305;46.410;17.394;2022-11-20T15:07:30;20.90;41.60
43561;DHT22;32305;46.410;17.394;2022-11-20T15:10:22;20.90;41.60
43561;DHT22;32305;46.410;17.394;2022-11-20T15:12:56;20.90;41.60
43561;DHT22;32305;46.410;17.394;2022-11-20T15:15:32;20.90;41.70
43561;DHT22;32305;46.410;17.394;2022-11-20T15:18:00;20.90;41.70
43561;DHT22;32305;46.410;17.394;2022-11-20T15:20:31;21.00;41.80
43561;DHT22;32305;46.410;17.394;2022-11-20T15:22:58;20.90;41.80
43561;DHT22;32305;46.410;17.394;2022-11-20T15:25:25;20.90;41.80
43561;DHT22;32305;46.410;17.394;2022-11-20T15:27:56;21.00;42.00
43561;DHT22;32305;46.410;17.394;2022-11-20T15:30:24;20.90;41.90
43561;DHT22;32305;46.410;17.394;2022-11-20T15:32:51;20.90;42.00
43561;DHT22;32305;46.410;17.394;2022-11-20T15:35:18;20.90;42.00
43561;DHT22;32305;46.410;17.394;2022-11-20T15:37:45;20.90;42.10
43561;DHT22;32305;46.410;17.394;2022-11-20T15:40:12;20.90;42.10
43561;DHT22;32305;46.410;17.394;2022-11-20T15:42:39;20.90;42.10
43561;DHT22;32305;46.410;17.394;2022-11-20T15:45:30;20.90;42.20
43561;DHT22;32305;46.410;17.394;2022-11-20T15:47:57;20.90;42.20
43561;DHT22;32305;46.410;17.394;2022-11-20T15:50:29;20.90;42.20
43561;DHT22;32305;46.410;17.394;2022-11-20T15:52:56;20.90;42.30
43561;DHT22;32305;46.410;17.394;2022-11-20T15:55:23;20.90;42.30
43561;DHT22;32305;46.410;17.394;2022-11-20T15:57:50;20.90;42.30
43561;DHT22;32305;46.410;17.394;2022-11-20T16:00:18;20.90;42.40
43561;DHT22;32305;46.410;17.394;2022-11-20T16:02:49;20.90;42.40
43561;DHT22;32305;46.410;17.394;2022-11-20T16:05:17;20.90;42.40
43561;DHT22;32305;46.410;17.394;2022-11-20T16:07:45;20.90;42.50
43561;DHT22;32305;46.410;17.394;2022-11-20T16:10:12;20.90;42.50
43561;DHT22;32305;46.410;17.394;2022-11-20T16:12:39;20.90;42.60